Time;durP1;ratioP1;P1;durP2;ratioP2;P2;SDS_P1;SDS_P2;PMS_P1;PMS_P2;Temp;Humidity;BMP_temperature;BMP_pressure;BME280_temperature;BME280_humidity;BME280_pressure;Samples;Min_cycle;Max_cycle;Signal;HPM_P1;HPM_P2
2022/03/09 00:00:01;;;;;;;72.87;35.63;;;;;;;1.79;66.71;99521.66;2173458;81;20953;-81
2022/03/09 00:03:02;;;;;;;71.67;35.33;;;;;;;1.80;66.79;99522.14;2173470;82;21009;-82
2022/03/09 00:06:02;;;;;;;78.20;36.33;;;;;;;1.78;66.74;99523.34;2173533;81;20929;-82
2022/03/09 00:09:03;;;;;;;76.97;36.33;;;;;;;1.80;66.76;99515.71;2173646;81;20962;-82
2022/03/09 00:12:03;;;;;;;76.57;35.93;;;;;;;1.75;66.65;99507.73;2173342;81;20952;-82
2022/03/09 00:15:04;;;;;;;74.73;34.40;;;;;;;1.73;66.84;99506.72;2173143;82;21388;-82
2022/03/09 00:18:05;;;;;;;72.23;33.50;;;;;;;1.70;66.92;99502.69;2173433;81;21312;-82
2022/03/09 00:21:06;;;;;;;73.97;32.87;;;;;;;1.69;66.99;99502.20;2173380;81;20945;-81
2022/03/09 00:24:07;;;;;;;82.37;32.93;;;;;;;1.69;67.14;99493.59;2173618;81;20890;-82
2022/03/09 00:27:07;;;;;;;62.53;30.57;;;;;;;1.66;67.18;99493.02;2173374;81;21346;-82
2022/03/09 00:30:08;;;;;;;69.60;31.43;;;;;;;1.67;67.06;99495.19;2173363;81;20960;-82
2022/03/09 00:33:08;;;;;;;66.97;30.03;;;;;;;1.67;67.14;99486.18;2173435;81;21320;-82
2022/03/09 00:36:09;;;;;;;65.83;30.17;;;;;;;1.65;66.98;99484.81;2173429;81;20941;-83
2022/03/09 00:39:09;;;;;;;71.03;30.37;;;;;;;1.64;67.10;99483.44;2173208;81;20941;-82
2022/03/09 00:42:10;;;;;;;64.20;27.97;;;;;;;1.67;67.20;99478.46;2173309;81;20929;-82
2022/03/09 00:45:10;;;;;;;55.33;28.23;;;;;;;1.68;67.27;99475.97;2172868;81;21004;-82
2022/03/09 00:48:11;;;;;;;61.77;28.60;;;;;;;1.66;67.25;99466.00;2173437;81;21009;-80
2022/03/09 00:51:11;;;;;;;63.77;28.93;;;;;;;1.67;67.34;99460.45;2174299;81;20965;-81
2022/03/09 00:54:12;;;;;;;59.67;27.80;;;;;;;1.68;67.33;99459.25;2189835;81;21011;-82
2022/03/09 00:57:12;;;;;;;63.90;29.03;;;;;;;1.69;67.42;99476.86;2190007;81;20928;-82
2022/03/09 01:00:13;;;;;;;62.47;27.70;;;;;;;1.73;67.35;99467.22;2190028;81;20959;-82
2022/03/09 01:03:14;;;;;;;57.07;27.27;;;;;;;1.74;67.37;99458.34;2190047;81;21355;-82
2022/03/09 01:06:14;;;;;;;55.07;26.67;;;;;;;1.76;67.32;99460.59;2190253;81;20985;-81
2022/03/09 01:09:14;;;;;;;59.87;27.80;;;;;;;1.78;67.36;99464.14;2190159;81;21007;-81
2022/03/09 01:12:15;;;;;;;60.23;26.80;;;;;;;1.77;67.21;99457.22;2189959;81;20932;-81
2022/03/09 01:15:16;;;;;;;61.03;27.50;;;;;;;1.80;67.32;99459.08;2190153;81;20936;-81
2022/03/09 01:18:16;;;;;;;61.67;27.90;;;;;;;1.83;67.34;99459.25;2190138;81;20937;-81
2022/03/09 01:21:17;;;;;;;54.47;26.70;;;;;;;1.86;67.26;99462.88;2189945;81;20968;-81
2022/03/09 01:24:17;;;;;;;56.10;26.47;;;;;;;1.91;67.11;99467.89;2190140;81;21342;-81
2022/03/09 01:27:18;;;;;;;55.20;26.67;;;;;;;1.93;67.16;99473.12;2190117;81;21335;-81
2022/03/09 01:30:18;;;;;;;59.23;27.53;;;;;;;1.90;66.98;99466.52;2190109;81;20928;-81
2022/03/09 01:33:19;;;;;;;63.53;28.67;;;;;;;1.89;66.89;99463.45;2190123;81;20932;-80
2022/03/09 01:36:19;;;;;;;61.43;27.93;;;;;;;1.85;67.04;99458.94;2190008;81;20941;-81
2022/03/09 01:39:20;;;;;;;59.50;27.27;;;;;;;1.84;67.03;99458.05;2190145;81;20941;-80
2022/03/09 01:42:20;;;;;;;60.80;27.77;;;;;;;1.84;67.36;99462.31;2190050;81;20984;-81
2022/03/09 01:45:21;;;;;;;58.17;27.57;;;;;;;1.85;67.22;99461.52;2190004;81;20952;-81
2022/03/09 01:48:22;;;;;;;57.17;29.87;;;;;;;1.86;67.20;99459.02;2190116;81;21347;-81
2022/03/09 01:51:23;;;;;;;60.37;27.27;;;;;;;1.85;67.13;99463.69;2189314;81;21315;-80
2022/03/09 01:54:24;;;;;;;52.83;28.47;;;;;;;1.85;67.17;99453.39;2173588;81;20986;-80
2022/03/09 01:57:25;;;;;;;62.30;28.53;;;;;;;1.82;67.11;99448.47;2173562;82;20980;-80
2022/03/09 02:00:25;;;;;;;54.33;25.37;;;;;;;1.75;67.33;99447.23;2173649;81;20969;-81
2022/03/09 02:03:25;;;;;;;53.93;25.23;;;;;;;1.74;67.26;99442.01;2173707;81;20984;-79
2022/03/09 02:06:26;;;;;;;47.90;24.40;;;;;;;1.74;67.35;99450.61;2173582;81;20954;-80
2022/03/09 02:09:42;;;;;;;48.87;24.90;;;;;;;1.78;67.39;99447.41;2173703;81;20949;-80
2022/03/09 02:12:42;;;;;;;51.87;25.67;;;;;;;1.80;67.49;99450.07;2173541;81;20914;-80
2022/03/09 02:15:43;;;;;;;50.77;25.50;;;;;;;1.83;67.42;99452.81;2173716;81;20925;-80
2022/03/09 02:18:44;;;;;;;51.00;24.03;;;;;;;1.84;67.57;99447.75;2173556;82;20941;-80
2022/03/09 02:21:44;;;;;;;49.53;23.67;;;;;;;1.80;67.46;99449.67;2173592;81;20932;-80
2022/03/09 02:24:45;;;;;;;43.40;24.03;;;;;;;1.76;67.65;99444.27;2173599;81;20937;-80
2022/03/09 02:27:45;;;;;;;50.97;25.70;;;;;;;1.72;67.58;99448.33;2173827;81;20972;-81
2022/03/09 02:30:46;;;;;;;53.07;26.60;;;;;;;1.62;67.72;99447.32;2173664;81;20898;-80
2022/03/09 02:33:46;;;;;;;53.77;26.30;;;;;;;1.58;68.00;99446.66;2173731;81;20889;-80
2022/03/09 02:36:46;;;;;;;58.03;27.03;;;;;;;1.54;68.11;99442.14;2173632;81;21383;-80
2022/03/09 02:39:47;;;;;;;56.50;26.57;;;;;;;1.50;68.23;99448.80;2173954;81;21332;-80
2022/03/09 02:42:48;;;;;;;52.70;26.77;;;;;;;1.49;68.35;99447.03;2173631;82;21377;-80
2022/03/09 02:45:48;;;;;;;52.10;26.93;;;;;;;1.52;68.36;99453.63;2173532;81;20945;-80
2022/03/09 02:48:49;;;;;;;57.83;26.33;;;;;;;1.51;68.39;99449.29;2173430;81;20993;-79
2022/03/09 02:51:50;;;;;;;54.90;27.33;;;;;;;1.51;68.53;99453.14;2173450;81;21037;-80
2022/03/09 02:54:50;;;;;;;57.43;27.53;;;;;;;1.51;68.43;99453.14;2173789;81;20933;-79
2022/03/09 02:57:51;;;;;;;54.57;28.07;;;;;;;1.53;68.61;99450.66;2173507;81;20925;-80
2022/03/09 03:00:51;;;;;;;57.73;28.97;;;;;;;1.55;68.46;99448.66;2173570;81;20921;-79
2022/03/09 03:03:52;;;;;;;55.40;28.70;;;;;;;1.56;68.58;99442.72;2172876;81;21035;-80
2022/03/09 03:06:52;;;;;;;60.40;29.60;;;;;;;1.59;68.50;99450.61;2173283;81;20976;-80
2022/03/09 03:09:53;;;;;;;67.33;31.23;;;;;;;1.57;68.41;99455.19;2173301;81;20952;-80
2022/03/09 03:12:53;;;;;;;62.40;31.87;;;;;;;1.55;68.57;99452.92;2173418;81;20916;-80
2022/03/09 03:15:53;;;;;;;61.17;28.80;;;;;;;1.62;68.61;99442.58;2173268;81;20988;-78
2022/03/09 03:18:54;;;;;;;57.97;29.93;;;;;;;1.67;68.46;99443.72;2173296;81;20933;-80
2022/03/09 03:21:54;;;;;;;61.90;30.27;;;;;;;1.68;68.33;99446.38;2173317;81;20921;-77
2022/03/09 03:24:55;;;;;;;62.80;30.97;;;;;;;1.70;68.39;99449.92;2173130;81;21380;-80
2022/03/09 03:27:55;;;;;;;56.13;30.77;;;;;;;1.73;68.33;99451.38;2173536;81;20965;-80
2022/03/09 03:30:56;;;;;;;60.73;31.43;;;;;;;1.77;68.23;99449.50;2173541;81;20973;-81
2022/03/09 03:33:56;;;;;;;63.10;32.27;;;;;;;1.78;68.17;99454.25;2173800;81;20964;-81
2022/03/09 03:36:57;;;;;;;61.57;31.87;;;;;;;1.79;68.11;99448.30;2173394;81;20960;-81
2022/03/09 03:39:57;;;;;;;66.57;33.07;;;;;;;1.81;68.10;99450.56;2173545;82;21364;-80
2022/03/09 03:42:58;;;;;;;68.60;33.07;;;;;;;1.84;68.11;99454.59;2173031;81;21316;-80
2022/03/09 03:45:58;;;;;;;69.10;33.33;;;;;;;1.82;68.12;99454.50;2173163;81;21383;-80
2022/03/09 03:48:59;;;;;;;67.50;34.60;;;;;;;1.81;68.10;99454.02;2171927;81;22036;-80
2022/03/09 03:51:59;;;;;;;64.57;32.23;;;;;;;1.81;68.17;99456.99;2174963;81;20882;-80
2022/03/09 03:55:00;;;;;;;66.37;32.30;;;;;;;1.80;68.18;99456.50;2189884;81;20976;-80
2022/03/09 03:58:00;;;;;;;56.57;30.93;;;;;;;1.78;68.18;99451.27;2189679;81;20972;-80
2022/03/09 04:01:01;;;;;;;65.17;31.43;;;;;;;1.81;68.21;99450.16;2188623;81;20967;-80
2022/03/09 04:04:01;;;;;;;58.77;31.77;;;;;;;1.83;68.30;99444.69;2189326;81;21410;-79
2022/03/09 04:07:02;;;;;;;67.37;31.97;;;;;;;1.82;68.20;99444.61;2187850;81;21453;-80
2022/03/09 04:10:03;;;;;;;63.33;33.33;;;;;;;1.78;68.31;99442.66;2189259;81;21343;-77
2022/03/09 04:13:04;;;;;;;60.13;30.53;;;;;;;1.81;68.34;99441.15;2189774;81;20940;-80
2022/03/09 04:16:04;;;;;;;66.10;31.40;;;;;;;1.85;68.35;99437.05;2189404;81;21335;-79
2022/03/09 04:19:05;;;;;;;59.93;29.93;;;;;;;1.85;68.36;99435.37;2189445;81;21014;-80
2022/03/09 04:22:05;;;;;;;64.17;31.67;;;;;;;1.84;68.27;99437.45;2187886;81;20963;-79
2022/03/09 04:25:06;;;;;;;57.17;29.97;;;;;;;1.78;68.33;99436.23;2187728;81;20951;-81
2022/03/09 04:28:06;;;;;;;60.13;29.30;;;;;;;1.76;68.40;99432.28;2187951;81;21007;-79
2022/03/09 04:31:07;;;;;;;55.00;28.93;;;;;;;1.74;68.53;99425.28;2187595;81;21031;-80
2022/03/09 04:34:07;;;;;;;58.40;29.70;;;;;;;1.71;68.60;99423.79;2186971;81;21015;-80
2022/03/09 04:37:08;;;;;;;60.73;31.63;;;;;;;1.68;68.66;99424.50;2187727;81;20968;-80
2022/03/09 04:40:08;;;;;;;74.13;32.67;;;;;;;1.68;68.91;99424.50;2187534;81;21362;-80
2022/03/09 04:43:09;;;;;;;59.40;30.47;;;;;;;1.72;68.89;99422.59;2186392;81;21406;-79
2022/03/09 04:46:09;;;;;;;61.30;31.47;;;;;;;1.99;69.37;99418.50;2187859;81;21404;-79
2022/03/09 04:49:11;;;;;;;55.07;27.17;;;;;;;2.00;68.75;99418.98;2186986;81;22183;-79
2022/03/09 04:52:11;;;;;;;55.57;27.90;;;;;;;1.98;68.66;99421.87;2186680;81;21000;-79
2022/03/09 04:55:12;;;;;;;56.10;27.77;;;;;;;1.98;68.58;99418.02;2186561;81;21864;-79
2022/03/09 04:58:12;;;;;;;58.50;28.03;;;;;;;1.96;68.59;99417.05;2187735;81;20956;-79
2022/03/09 05:01:13;;;;;;;56.33;27.77;;;;;;;1.94;68.65;99422.11;2187871;81;20968;-79
2022/03/09 05:04:13;;;;;;;59.97;27.97;;;;;;;1.93;68.55;99432.33;2187822;81;21000;-79
2022/03/09 05:07:13;;;;;;;56.33;28.50;;;;;;;1.94;68.62;99430.23;2188998;81;20981;-80
2022/03/09 05:10:14;;;;;;;52.17;26.50;;;;;;;1.96;68.58;99431.20;2189347;81;20972;-80
2022/03/09 05:13:15;;;;;;;50.50;27.50;;;;;;;1.96;68.63;99432.09;2188826;81;20963;-79
2022/03/09 05:16:15;;;;;;;54.93;26.73;;;;;;;2.00;68.63;99426.71;2187559;81;21291;-79
2022/03/09 05:19:15;;;;;;;53.07;26.20;;;;;;;2.00;68.58;99426.71;2188777;81;21481;-79
2022/03/09 05:22:16;;;;;;;53.93;27.47;;;;;;;2.02;68.68;99426.39;2188852;81;20995;-79
2022/03/09 05:25:16;;;;;;;54.43;26.57;;;;;;;2.03;68.51;99428.17;2188555;81;21045;-79
2022/03/09 05:28:17;;;;;;;50.47;25.63;;;;;;;2.07;68.61;99430.10;2188020;81;21042;-79
2022/03/09 05:31:18;;;;;;;55.27;25.40;;;;;;;2.08;68.42;99426.73;2186408;81;20987;-79
2022/03/09 05:34:19;;;;;;;47.50;25.07;;;;;;;2.12;68.42;99426.09;2187241;81;21050;-79
2022/03/09 05:37:21;;;;;;;55.10;26.90;;;;;;;2.14;68.26;99424.48;2186852;81;20968;-79
2022/03/09 05:40:22;;;;;;;54.33;28.03;;;;;;;2.13;68.22;99426.17;2185551;81;21038;-80
2022/03/09 05:43:22;;;;;;;56.30;28.80;;;;;;;2.15;68.29;99424.97;2184380;81;20995;-79
2022/03/09 05:46:23;;;;;;;65.27;29.63;;;;;;;2.19;68.27;99425.61;2185103;81;21002;-79
2022/03/09 05:49:23;;;;;;;57.00;28.23;;;;;;;2.22;68.17;99430.53;2185788;81;21091;-79
2022/03/09 05:52:24;;;;;;;62.47;29.67;;;;;;;2.22;68.15;99427.06;2185053;81;21454;-79
2022/03/09 05:55:24;;;;;;;56.97;28.00;;;;;;;2.21;68.12;99434.31;2169178;81;20964;-79
2022/03/09 05:58:25;;;;;;;62.73;30.47;;;;;;;2.18;68.26;99432.86;2170467;82;20961;-81
2022/03/09 06:01:25;;;;;;;60.10;32.33;;;;;;;2.17;68.46;99437.13;2169801;81;20944;-78
2022/03/09 06:07:30;;;;;;;75.37;38.43;;;;;;;2.19;68.49;99437.20;2159401;82;21060;-80
2022/03/09 06:10:30;;;;;;;82.80;40.37;;;;;;;2.19;68.38;99436.80;2168929;81;20972;-80
2022/03/09 06:13:31;;;;;;;79.93;38.80;;;;;;;2.22;68.44;99441.23;2170048;81;21003;-81
2022/03/09 06:16:32;;;;;;;73.53;37.93;;;;;;;2.15;68.45;99431.00;2169588;81;20988;-80
2022/03/09 06:19:33;;;;;;;83.30;38.60;;;;;;;2.20;68.49;99441.16;2170262;81;21982;-81
2022/03/09 06:22:33;;;;;;;84.73;40.77;;;;;;;2.23;68.35;99442.60;2170012;81;20996;-80
2022/03/09 06:25:37;;;;;;;92.07;43.07;;;;;;;2.28;68.48;99440.67;2170434;81;21396;-81
2022/03/09 06:28:36;;;;;;;93.13;42.87;;;;;;;2.30;68.37;99445.11;2171202;81;21605;-80
2022/03/09 06:31:37;;;;;;;100.97;42.90;;;;;;;2.38;68.52;99451.95;2170380;82;20996;-81
2022/03/09 06:34:37;;;;;;;92.90;42.20;;;;;;;2.46;68.26;99458.41;2171385;81;21333;-81
2022/03/09 06:37:38;;;;;;;88.00;40.80;;;;;;;2.52;68.11;99467.34;2171434;81;21017;-78
2022/03/09 06:40:38;;;;;;;99.97;41.97;;;;;;;2.54;68.06;99466.14;2171320;81;20984;-82
2022/03/09 06:43:39;;;;;;;105.30;47.50;;;;;;;2.59;67.87;99461.23;2170804;81;20969;-81
2022/03/09 06:49:42;;;;;;;110.63;50.63;;;;;;;2.67;67.98;99458.69;2160074;82;21851;-80
2022/03/09 06:52:42;;;;;;;110.77;50.70;;;;;;;2.67;67.94;99461.27;2171613;81;20961;-80
2022/03/09 06:55:43;;;;;;;98.07;46.27;;;;;;;2.70;67.79;99458.84;2186528;81;21447;-80
2022/03/09 06:58:43;;;;;;;87.17;41.07;;;;;;;2.70;67.86;99468.76;2186024;81;21395;-81
2022/03/09 07:01:44;;;;;;;95.40;42.23;;;;;;;2.75;67.74;99467.70;2186850;81;21877;-78
2022/03/09 07:04:44;;;;;;;82.73;40.00;;;;;;;2.80;67.72;99473.98;2187800;81;21386;-81
2022/03/09 07:07:44;;;;;;;79.63;39.77;;;;;;;2.86;67.60;99477.77;2187737;81;21059;-80
2022/03/09 07:10:46;;;;;;;74.70;37.20;;;;;;;2.91;67.43;99484.46;2187231;81;21030;-81
2022/03/09 07:13:46;;;;;;;71.20;35.97;;;;;;;2.91;67.46;99484.46;2187341;81;21374;-81
2022/03/09 07:16:47;;;;;;;65.50;33.03;;;;;;;2.95;67.48;99483.81;2187563;81;20983;-82
2022/03/09 07:19:47;;;;;;;71.33;33.97;;;;;;;3.05;67.33;99482.59;2187661;81;20972;-80
2022/03/09 07:22:48;;;;;;;66.60;34.27;;;;;;;3.02;67.25;99482.44;2188653;81;20967;-82
2022/03/09 07:25:48;;;;;;;74.70;38.80;;;;;;;2.99;67.31;99488.32;2187891;81;20948;-80
2022/03/09 07:28:49;;;;;;;69.03;39.53;;;;;;;3.00;67.49;99482.76;2187808;81;21410;-80
2022/03/09 07:31:49;;;;;;;62.40;34.67;;;;;;;3.09;67.49;99476.38;2187613;81;20979;-79
2022/03/09 07:34:50;;;;;;;60.63;33.30;;;;;;;3.20;67.37;99476.52;2187867;81;20952;-81
2022/03/09 07:37:51;;;;;;;59.07;32.23;;;;;;;3.23;67.11;99473.20;2187034;81;20959;-80
2022/03/09 07:40:51;;;;;;;64.03;34.60;;;;;;;3.24;67.23;99476.67;2187483;81;21024;-82
2022/03/09 07:43:52;;;;;;;68.00;33.83;;;;;;;3.31;67.30;99474.48;2187693;81;21007;-80
2022/03/09 07:46:52;;;;;;;88.40;39.10;;;;;;;3.46;67.06;99471.38;2186294;81;20955;-81
2022/03/09 07:49:53;;;;;;;71.73;37.13;;;;;;;3.55;66.73;99472.27;2186677;81;21031;-81
2022/03/09 07:52:54;;;;;;;67.13;36.80;;;;;;;3.70;66.92;99470.84;2187707;81;20980;-82
2022/03/09 07:55:54;;;;;;;64.50;35.67;;;;;;;3.83;66.33;99475.37;2187894;81;20960;-82
2022/03/09 07:58:55;;;;;;;419.97;82.67;;;;;;;3.95;66.27;99474.20;2186955;81;20968;-82
2022/03/09 08:01:55;;;;;;;78.03;38.53;;;;;;;4.18;66.88;99477.87;2187574;81;20964;-81
2022/03/09 08:04:56;;;;;;;121.00;42.17;;;;;;;4.27;65.60;99478.30;2187285;81;20944;-80
2022/03/09 08:07:57;;;;;;;115.53;38.03;;;;;;;4.32;65.63;99473.82;2186839;81;21344;-80
2022/03/09 08:10:57;;;;;;;63.97;33.83;;;;;;;4.36;65.24;99464.13;2187229;81;21837;-81
2022/03/09 08:13:58;;;;;;;70.73;35.93;;;;;;;4.39;65.13;99465.56;2188129;81;21370;-81
2022/03/09 08:16:58;;;;;;;60.10;33.10;;;;;;;4.39;64.65;99464.27;2187315;81;20980;-81
2022/03/09 08:19:59;;;;;;;63.83;34.70;;;;;;;4.42;64.68;99463.12;2187232;81;20936;-81
2022/03/09 08:22:59;;;;;;;67.40;35.63;;;;;;;4.46;64.70;99458.57;2186601;81;21052;-78
2022/03/09 08:26:00;;;;;;;62.47;34.97;;;;;;;4.46;64.60;99455.98;2184619;81;20987;-80
2022/03/09 08:29:00;;;;;;;65.30;33.17;;;;;;;4.55;64.37;99448.17;2186365;81;21394;-81
2022/03/09 08:32:01;;;;;;;62.83;35.00;;;;;;;4.56;64.26;99442.18;2186902;81;21379;-81
2022/03/09 08:35:01;;;;;;;72.53;37.60;;;;;;;4.61;64.03;99440.69;2187826;81;20952;-81
2022/03/09 08:38:02;;;;;;;62.30;33.97;;;;;;;4.66;64.04;99439.19;2188040;81;20989;-82
2022/03/09 08:41:02;;;;;;;64.43;34.47;;;;;;;4.77;63.67;99432.38;2187730;81;21371;-81
2022/03/09 08:44:03;;;;;;;64.13;33.60;;;;;;;4.88;63.77;99435.84;2187346;81;21335;-81
2022/03/09 08:47:04;;;;;;;70.43;35.50;;;;;;;5.01;63.42;99445.91;2188077;81;21335;-80
2022/03/09 08:50:05;;;;;;;66.40;35.37;;;;;;;5.03;63.08;99445.16;2187713;81;20955;-81
2022/03/09 08:53:05;;;;;;;61.97;33.73;;;;;;;5.03;62.74;99449.03;2186321;81;21379;-81
2022/03/09 08:56:10;;;;;;;60.23;34.23;;;;;;;5.10;62.82;99448.88;2185930;81;21027;-81
2022/03/09 08:59:10;;;;;;;62.10;35.35;;;;;;;5.27;62.47;99449.63;2186294;81;20990;-81
2022/03/09 09:02:11;;;;;;;59.37;32.80;;;;;;;5.35;62.54;99449.55;2185998;81;21608;-82
2022/03/09 09:05:11;;;;;;;62.40;35.13;;;;;;;5.47;62.06;99446.17;2185669;81;21423;-82
2022/03/09 09:08:13;;;;;;;97.23;35.30;;;;;;;5.41;61.47;99440.74;2186027;81;21027;-82
2022/03/09 09:11:14;;;;;;;63.13;34.93;;;;;;;5.42;61.84;99443.39;2185675;81;21390;-81
2022/03/09 09:14:14;;;;;;;62.10;34.07;;;;;;;5.46;61.86;99434.05;2186374;81;20988;-80
2022/03/09 09:17:15;;;;;;;61.77;34.60;;;;;;;5.51;61.55;99432.53;2186010;81;21589;-81
2022/03/09 09:20:16;;;;;;;66.77;36.03;;;;;;;5.56;61.04;99431.42;2186227;81;20967;-81
2022/03/09 09:23:16;;;;;;;58.30;33.40;;;;;;;5.50;60.97;99433.77;2186892;81;21604;-82
2022/03/09 09:26:18;;;;;;;60.53;33.47;;;;;;;5.54;61.59;99423.59;2186559;81;20960;-81
2022/03/09 09:29:19;;;;;;;57.43;33.63;;;;;;;5.76;61.38;99434.00;2186308;81;21014;-80
2022/03/09 09:32:22;;;;;;;58.27;31.43;;;;;;;5.89;60.67;99431.89;2186287;81;21012;-81
2022/03/09 09:35:23;;;;;;;68.93;33.63;;;;;;;5.98;60.88;99424.52;2186486;81;20948;-82
2022/03/09 09:38:24;;;;;;;56.53;31.73;;;;;;;6.13;60.28;99429.03;2186353;81;20994;-82
2022/03/09 09:41:26;;;;;;;57.03;33.10;;;;;;;6.24;59.87;99435.51;2186869;81;20967;-81
2022/03/09 09:44:26;;;;;;;56.73;31.73;;;;;;;6.37;59.79;99431.67;2186558;81;21069;-81
2022/03/09 09:47:27;;;;;;;49.97;30.73;;;;;;;6.54;59.91;99428.41;2186972;81;21019;-81
2022/03/09 09:50:28;;;;;;;59.87;33.77;;;;;;;6.65;58.99;99427.97;2187722;81;21047;-81
2022/03/09 09:53:30;;;;;;;59.83;32.13;;;;;;;6.69;58.88;99423.36;2185878;81;21076;-82
2022/03/09 09:56:31;;;;;;;54.83;31.47;;;;;;;6.77;58.76;99415.86;2170244;81;20999;-82
2022/03/09 09:59:31;;;;;;;72.20;33.10;;;;;;;6.97;58.13;99412.70;2170667;82;20991;-82
2022/03/09 10:02:32;;;;;;;53.37;32.27;;;;;;;7.03;58.02;99411.20;2171068;81;21266;-81
2022/03/09 10:05:33;;;;;;;59.87;38.23;;;;;;;7.08;57.67;99420.86;2170970;82;21344;-80
2022/03/09 10:08:34;;;;;;;58.43;33.27;;;;;;;7.04;57.69;99422.47;2171102;81;20988;-82
2022/03/09 10:11:34;;;;;;;53.07;31.63;;;;;;;7.19;57.39;99424.71;2172064;81;20972;-82
2022/03/09 10:14:35;;;;;;;202.23;39.27;;;;;;;7.26;56.91;99430.58;2170913;81;21379;-81
2022/03/09 10:17:36;;;;;;;56.10;34.17;;;;;;;7.29;57.37;99420.30;2170877;81;20937;-81
2022/03/09 10:20:36;;;;;;;57.50;33.50;;;;;;;7.34;56.72;99426.11;2170862;81;20988;-80
2022/03/09 10:23:37;;;;;;;89.33;34.00;;;;;;;7.43;56.70;99434.63;2170364;81;20996;-79
2022/03/09 10:26:41;;;;;;;52.83;31.83;;;;;;;7.61;56.50;99439.55;2170725;81;20991;-82
2022/03/09 10:29:41;;;;;;;47.37;29.00;;;;;;;7.56;56.45;99439.81;2171179;82;21092;-81
2022/03/09 10:32:42;;;;;;;53.97;30.67;;;;;;;7.63;56.64;99443.08;2170452;81;21340;-82
2022/03/09 10:35:42;;;;;;;48.77;30.83;;;;;;;7.64;55.76;99437.94;2170637;81;21344;-82
2022/03/09 10:38:45;;;;;;;46.60;29.43;;;;;;;7.70;56.29;99430.76;2170029;81;21356;-80
2022/03/09 10:41:45;;;;;;;47.70;29.40;;;;;;;7.82;55.77;99433.78;2170376;81;22110;-81
2022/03/09 10:44:45;;;;;;;45.40;27.87;;;;;;;7.89;55.18;99429.66;2169842;81;20977;-85
2022/03/09 10:47:46;;;;;;;48.37;27.77;;;;;;;7.99;55.00;99427.82;2169792;81;21008;-84
2022/03/09 10:50:47;;;;;;;156.93;32.73;;;;;;;8.09;55.12;99420.77;2170459;81;21028;-80
2022/03/09 10:53:47;;;;;;;41.03;26.67;;;;;;;8.22;54.42;99422.91;2173094;81;21023;-84
2022/03/09 10:56:48;;;;;;;47.33;29.80;;;;;;;8.26;53.96;99413.48;2187970;81;21007;-86
2022/03/09 10:59:48;;;;;;;42.03;26.73;;;;;;;8.13;54.15;99423.92;2188229;81;20945;-85
2022/03/09 11:02:52;;;;;;;47.73;26.80;;;;;;;8.00;53.33;99416.58;2187753;81;20999;-84
2022/03/09 11:05:51;;;;;;;40.53;27.33;;;;;;;8.03;54.13;99408.88;2187647;81;21367;-85
2022/03/09 11:08:52;;;;;;;45.27;28.30;;;;;;;8.13;54.49;99408.74;2187332;81;21022;-84
2022/03/09 11:11:53;;;;;;;45.27;28.40;;;;;;;8.20;54.11;99401.17;2187328;81;20944;-84
2022/03/09 11:14:53;;;;;;;46.80;30.73;;;;;;;8.27;54.13;99400.52;2187942;81;21339;-85
2022/03/09 11:17:54;;;;;;;42.97;27.80;;;;;;;8.28;53.92;99397.08;2188468;81;22082;-84
2022/03/09 11:20:54;;;;;;;48.47;28.23;;;;;;;8.42;53.23;99393.62;2187892;81;21043;-83
2022/03/09 11:23:55;;;;;;;41.07;27.60;;;;;;;8.52;53.47;99402.56;2188349;81;21026;-84
2022/03/09 11:26:55;;;;;;;41.93;27.53;;;;;;;8.51;52.45;99402.10;2188153;81;20962;-83
2022/03/09 11:29:57;;;;;;;45.07;25.77;;;;;;;8.54;53.07;99403.49;2188730;81;20971;-84
2022/03/09 11:32:58;;;;;;;42.57;28.17;;;;;;;8.64;52.84;99404.22;2188170;81;21009;-84
2022/03/09 11:35:58;;;;;;;45.47;29.57;;;;;;;8.83;52.67;99394.81;2188293;81;21021;-84
2022/03/09 11:38:59;;;;;;;46.00;30.17;;;;;;;8.87;51.78;99397.08;2187844;81;20964;-83
2022/03/09 11:41:59;;;;;;;41.63;26.87;;;;;;;8.86;52.34;99392.30;2188575;81;20940;-84
2022/03/09 11:45:00;;;;;;;41.30;27.00;;;;;;;8.97;51.71;99387.38;2188944;81;21000;-81
2022/03/09 11:48:01;;;;;;;36.90;24.57;;;;;;;9.09;51.58;99389.00;2187875;81;22006;-83
2022/03/09 11:51:03;;;;;;;38.63;26.17;;;;;;;9.18;50.02;99398.35;2188220;81;21019;-82
2022/03/09 11:54:06;;;;;;;40.27;25.03;;;;;;;9.24;50.66;99388.52;2188275;81;21107;-82
2022/03/09 11:57:07;;;;;;;39.47;25.77;;;;;;;9.13;49.96;99392.56;2187829;81;20960;-81
2022/03/09 12:00:07;;;;;;;34.40;24.87;;;;;;;9.08;49.97;99396.77;2187631;81;21007;-83
2022/03/09 12:06:12;;;;;;;32.10;22.10;;;;;;;8.98;48.71;99389.55;2170225;81;21011;-82
2022/03/09 12:09:13;;;;;;;32.83;20.90;;;;;;;9.00;49.03;99385.27;2187293;81;21022;-82
2022/03/09 12:12:13;;;;;;;31.30;19.85;;;;;;;9.07;49.00;99378.96;2186905;81;20988;-84
2022/03/09 12:15:14;;;;;;;31.33;20.73;;;;;;;9.10;48.16;99388.16;2187000;81;20932;-80
2022/03/09 12:18:14;;;;;;;29.95;19.60;;;;;;;9.18;48.34;99377.52;2187044;81;20971;-83
2022/03/09 12:21:15;;;;;;;36.30;20.03;;;;;;;9.24;47.88;99391.13;2186656;81;20996;-84
2022/03/09 12:24:16;;;;;;;27.37;19.07;;;;;;;9.21;47.78;99394.95;2186730;81;21047;-84
2022/03/09 12:27:17;;;;;;;26.57;18.33;;;;;;;9.12;47.45;99389.08;2186843;81;20972;-82
2022/03/09 12:30:17;;;;;;;50.60;20.33;;;;;;;9.04;47.38;99389.30;2187108;81;20975;-84
2022/03/09 12:33:18;;;;;;;37.77;19.40;;;;;;;8.99;47.95;99393.92;2187530;81;20944;-82
2022/03/09 12:36:18;;;;;;;55.30;22.03;;;;;;;8.99;47.97;99388.72;2187713;81;21036;-83
2022/03/09 12:39:19;;;;;;;28.97;20.97;;;;;;;9.10;48.51;99385.97;2187654;81;21466;-83
2022/03/09 12:42:19;;;;;;;34.77;20.67;;;;;;;9.10;48.24;99392.06;2186779;81;20968;-81
2022/03/09 12:45:20;;;;;;;33.97;20.23;;;;;;;9.06;48.11;99383.71;2187193;81;20995;-82
2022/03/09 12:48:20;;;;;;;38.90;21.00;;;;;;;9.10;47.96;99384.67;2186969;81;20979;-82
2022/03/09 12:51:21;;;;;;;32.83;20.73;;;;;;;9.31;47.78;99392.16;2187577;81;21003;-84
2022/03/09 12:54:21;;;;;;;79.83;22.67;;;;;;;9.42;47.75;99379.86;2187554;81;21063;-84
2022/03/09 12:57:23;;;;;;;25.97;16.13;;;;;;;9.46;47.36;99378.21;2188340;81;20960;-82
2022/03/09 13:00:25;;;;;;;26.27;16.07;;;;;;;9.35;46.16;99372.73;2187640;81;21007;-82
2022/03/09 13:03:27;;;;;;;37.60;18.87;;;;;;;9.40;46.22;99368.52;2188036;81;20987;-84
2022/03/09 13:06:29;;;;;;;28.37;18.30;;;;;;;9.41;46.40;99372.00;2188016;81;21075;-83
2022/03/09 13:09:30;;;;;;;35.43;18.93;;;;;;;9.34;47.03;99369.67;2188406;81;21075;-83
2022/03/09 13:12:30;;;;;;;27.83;17.70;;;;;;;9.47;47.74;99370.43;2187619;81;21019;-82
2022/03/09 13:15:31;;;;;;;26.40;17.97;;;;;;;9.45;46.84;99376.45;2187926;81;21059;-82
2022/03/09 13:18:31;;;;;;;29.83;19.17;;;;;;;9.30;47.34;99379.97;2187182;81;20995;-83
2022/03/09 13:21:32;;;;;;;29.23;17.83;;;;;;;9.13;47.77;99380.84;2187423;81;20943;-82
2022/03/09 13:24:33;;;;;;;24.53;15.77;;;;;;;8.99;47.78;99379.60;2186942;81;20952;-84
2022/03/09 13:27:34;;;;;;;24.43;15.23;;;;;;;8.80;47.18;99384.73;2186077;81;21055;-83
2022/03/09 13:30:34;;;;;;;23.37;15.33;;;;;;;8.77;47.29;99387.25;2187030;81;21340;-85
2022/03/09 13:33:35;;;;;;;24.03;16.07;;;;;;;8.85;47.45;99377.52;2186803;81;21433;-82
2022/03/09 13:36:36;;;;;;;26.33;13.97;;;;;;;9.00;47.03;99380.06;2186911;81;20988;-83
2022/03/09 13:39:38;;;;;;;21.37;13.40;;;;;;;9.03;47.02;99381.45;2188303;81;20972;-79
2022/03/09 13:42:39;;;;;;;24.20;15.17;;;;;;;9.08;46.49;99382.03;2188681;81;21040;-83
2022/03/09 13:45:41;;;;;;;18.87;12.40;;;;;;;9.13;46.02;99383.45;2188365;81;20940;-82
2022/03/09 13:48:41;;;;;;;27.27;14.00;;;;;;;9.19;46.01;99386.22;2187000;81;21034;-83
2022/03/09 13:51:42;;;;;;;22.00;14.90;;;;;;;9.25;46.27;99383.34;2186823;81;20979;-84
2022/03/09 13:54:42;;;;;;;18.70;13.37;;;;;;;9.38;45.94;99387.14;2185793;81;22453;-84
2022/03/09 13:57:42;;;;;;;19.60;12.67;;;;;;;9.38;45.28;99388.44;2177582;82;21027;-84
2022/03/09 14:00:43;;;;;;;21.43;14.57;;;;;;;9.30;45.61;99383.87;2177140;82;20995;-82
2022/03/09 14:03:44;;;;;;;22.70;14.03;;;;;;;9.15;45.57;99387.86;2176996;82;20988;-84
2022/03/09 14:06:44;;;;;;;18.13;11.80;;;;;;;9.03;45.01;99394.47;2177332;82;20996;-85